Time;durP1;ratioP1;P1;durP2;ratioP2;P2;SDS_P1;SDS_P2;PMS_P1;PMS_P2;Temp;Humidity;BMP_temperature;BMP_pressure;BME280_temperature;BME280_humidity;BME280_pressure;Samples;Min_cycle;Max_cycle;Signal;HPM_P1;HPM_P2
2021/09/06 00:01:12;;;;;;;;;21.50;17.50;;;;;22.51;50.37;101182.94;4997890;28;45564;-66
2021/09/06 00:03:38;;;;;;;;;14.50;14.25;;;;;22.42;50.33;101176.47;4998040;28;46043;-65
2021/09/06 00:06:03;;;;;;;;;18.75;17.00;;;;;22.45;50.34;101189.66;4998324;28;45617;-66
2021/09/06 00:08:28;;;;;;;;;15.75;15.25;;;;;22.39;51.08;101184.78;4998254;28;45642;-67
2021/09/06 00:11:04;;;;;;;;;16.00;15.25;;;;;22.36;50.74;101185.84;4999167;28;45535;-65
2021/09/06 00:13:30;;;;;;;;;13.75;13.00;;;;;22.32;50.93;101181.72;4997701;28;46176;-66
2021/09/06 00:15:55;;;;;;;;;20.75;17.75;;;;;22.29;51.22;101180.16;4997418;28;45289;-65
2021/09/06 00:18:21;;;;;;;;;18.50;16.25;;;;;22.28;50.62;101186.50;4997979;28;45333;-65
2021/09/06 00:20:46;;;;;;;;;16.00;14.00;;;;;22.25;50.99;101185.88;4979989;28;45642;-66
2021/09/06 00:23:12;;;;;;;;;15.00;13.75;;;;;22.22;50.68;101184.28;4980140;28;47413;-68
2021/09/06 00:25:38;;;;;;;;;18.50;17.00;;;;;22.16;51.00;101174.91;4979945;28;45230;-66
2021/09/06 00:28:04;;;;;;;;;17.50;17.50;;;;;22.15;51.05;101181.25;4997495;28;45243;-65
2021/09/06 00:30:29;;;;;;;;;17.00;17.00;;;;;22.11;50.90;101173.56;4979763;28;45681;-65
2021/09/06 00:32:54;;;;;;;;;17.75;15.00;;;;;22.07;51.20;101188.19;4997362;28;46564;-66
2021/09/06 00:35:20;;;;;;;;;17.00;13.75;;;;;22.07;51.01;101185.50;4979760;28;45653;-65
2021/09/06 00:37:45;;;;;;;;;14.00;11.75;;;;;22.04;51.24;101182.09;4997890;28;45375;-67
2021/09/06 00:40:12;;;;;;;;;14.50;13.00;;;;;21.96;51.17;101168.47;4997704;28;45407;-66
2021/09/06 00:42:37;;;;;;;;;16.00;14.25;;;;;21.95;51.34;101171.28;4997564;28;45425;-68
2021/09/06 00:45:04;;;;;;;;;14.75;14.50;;;;;21.94;51.12;101183.81;4995865;28;45472;-65
2021/09/06 00:47:29;;;;;;;;;16.75;14.00;;;;;21.89;51.52;101172.59;4997451;28;45452;-66
2021/09/06 00:49:55;;;;;;;;;17.75;14.25;;;;;21.91;51.53;101186.72;4997328;28;45468;-69
2021/09/06 00:52:21;;;;;;;;;17.00;16.75;;;;;21.89;51.98;101189.53;4995791;28;47213;-67
2021/09/06 00:54:47;;;;;;;;;18.00;15.75;;;;;21.85;51.79;101179.19;4996703;28;45204;-66
2021/09/06 00:57:12;;;;;;;;;10.25;7.00;;;;;21.83;51.90;101182.00;4997175;28;45287;-69
2021/09/06 00:59:38;;;;;;;;;20.50;17.50;;;;;21.78;52.10;101184.19;4997481;28;45326;-67
2021/09/06 01:02:03;;;;;;;;;18.75;16.50;;;;;21.80;52.02;101190.25;4996881;28;45281;-69
2021/09/06 01:04:29;;;;;;;;;15.75;14.50;;;;;21.78;51.93;101196.69;4996269;28;45223;-66
2021/09/06 01:06:54;;;;;;;;;16.25;14.75;;;;;21.73;52.41;101189.88;4996805;28;45375;-66
2021/09/06 01:09:20;;;;;;;;;17.00;17.00;;;;;21.73;53.00;101195.22;4997134;28;45211;-66
2021/09/06 01:11:45;;;;;;;;;16.50;14.75;;;;;21.69;52.34;101191.09;4996868;28;46546;-66
2021/09/06 01:14:10;;;;;;;;;18.00;17.00;;;;;21.66;52.42;101188.66;4996970;28;45338;-65
2021/09/06 01:16:36;;;;;;;;;17.25;16.00;;;;;21.65;52.63;101192.31;4996939;28;45308;-66
2021/09/06 01:19:01;;;;;;;;;20.25;16.25;;;;;21.58;52.50;101186.53;4996870;28;45290;-65
2021/09/06 01:21:27;;;;;;;;;24.25;18.00;;;;;21.60;52.85;101189.94;4996583;28;45384;-66
2021/09/06 01:23:52;;;;;;;;;20.50;19.00;;;;;21.58;53.32;101194.56;4996749;28;45498;-65
2021/09/06 01:26:18;;;;;;;;;18.75;18.00;;;;;21.52;54.14;101187.00;4979118;28;45822;-65
2021/09/06 01:28:43;;;;;;;;;20.25;19.75;;;;;21.42;54.39;101176.16;4996610;28;45535;-65
2021/09/06 01:31:08;;;;;;;;;19.50;17.50;;;;;21.49;54.35;101186.41;4979125;28;45943;-65
2021/09/06 01:33:34;;;;;;;;;21.50;20.75;;;;;21.35;54.53;101166.91;4978735;28;45400;-66
2021/09/06 01:35:59;;;;;;;;;22.25;20.50;;;;;21.39;54.27;101178.22;4996682;28;45404;-67
2021/09/06 01:38:24;;;;;;;;;18.50;17.25;;;;;21.38;54.08;101182.72;4996820;28;45611;-67
2021/09/06 01:40:50;;;;;;;;;17.50;17.00;;;;;21.35;54.09;101190.13;4996219;28;45481;-66
2021/09/06 01:43:15;;;;;;;;;19.25;16.50;;;;;21.33;54.01;101187.59;4996247;28;45458;-66
2021/09/06 01:45:40;;;;;;;;;23.00;18.00;;;;;21.31;54.21;101192.19;4996908;28;45386;-66
2021/09/06 01:48:06;;;;;;;;;16.00;16.00;;;;;21.30;54.25;101198.53;4996677;28;45440;-69
2021/09/06 01:50:32;;;;;;;;;18.50;18.50;;;;;21.24;54.29;101193.63;4996344;28;46089;-66
2021/09/06 01:52:57;;;;;;;;;21.75;17.75;;;;;21.23;54.35;101192.78;4978545;28;45254;-65
2021/09/06 01:55:22;;;;;;;;;21.25;19.00;;;;;21.23;54.61;101199.97;4996358;28;45293;-66
2021/09/06 01:57:48;;;;;;;;;17.00;16.00;;;;;21.17;55.04;101196.75;4996354;28;45286;-67
2021/09/06 02:00:13;;;;;;;;;23.75;22.50;;;;;21.15;55.29;101198.69;4996392;28;46170;-67
2021/09/06 02:02:39;;;;;;;;;23.00;20.50;;;;;21.14;55.38;101196.97;4996151;28;45247;-67
2021/09/06 02:05:05;;;;;;;;;25.00;19.25;;;;;21.12;55.85;101201.59;4978475;28;45318;-66
2021/09/06 02:07:31;;;;;;;;;22.00;21.00;;;;;21.12;56.42;101201.59;4995892;28;45444;-65
2021/09/06 02:09:56;;;;;;;;;20.25;18.50;;;;;21.09;56.59;101207.16;4995481;28;46019;-65
2021/09/06 02:12:21;;;;;;;;;23.00;17.75;;;;;21.04;56.27;101201.31;4995774;28;45354;-64
2021/09/06 02:14:47;;;;;;;;;21.75;21.25;;;;;21.03;57.16;101210.31;4995945;28;45376;-64
2021/09/06 02:17:12;;;;;;;;;22.00;21.75;;;;;21.00;57.66;101203.38;4996353;28;45734;-63
2021/09/06 02:19:38;;;;;;;;;26.75;24.00;;;;;20.97;57.36;101203.63;4995757;28;46316;-65
2021/09/06 02:22:03;;;;;;;;;22.25;20.25;;;;;20.94;57.52;101209.19;4978007;28;45922;-65
2021/09/06 02:24:29;;;;;;;;;30.50;25.50;;;;;20.91;58.41;101204.06;4995864;28;45254;-65
2021/09/06 02:26:54;;;;;;;;;24.25;23.25;;;;;20.87;58.54;101206.09;4978284;28;45305;-64
2021/09/06 02:29:20;;;;;;;;;24.25;22.25;;;;;20.82;58.77;101208.25;4977443;28;47285;-66
2021/09/06 02:31:45;;;;;;;;;23.50;22.00;;;;;20.79;59.24;101208.50;4978176;28;45293;-66
2021/09/06 02:34:11;;;;;;;;;24.25;22.50;;;;;20.75;59.65;101204.31;4995735;28;45231;-67
2021/09/06 02:36:36;;;;;;;;;26.75;24.50;;;;;20.66;60.02;101194.28;4995858;28;45580;-65
2021/09/06 02:39:03;;;;;;;;;24.50;22.50;;;;;20.71;59.30;101209.03;4995496;28;45371;-64
2021/09/06 02:41:29;;;;;;;;;25.75;22.00;;;;;20.70;59.48;101217.16;4994062;28;45655;-66
2021/09/06 02:43:54;;;;;;;;;23.00;22.00;;;;;20.65;60.05;101211.28;4995518;28;45321;-66
2021/09/06 02:46:19;;;;;;;;;25.50;21.25;;;;;20.64;59.73;101214.94;4995929;28;45331;-66
2021/09/06 02:48:45;;;;;;;;;20.50;20.00;;;;;20.59;59.68;101217.94;4977568;28;48070;-64
2021/09/06 02:51:10;;;;;;;;;30.25;24.25;;;;;20.56;60.22;101223.50;4995293;28;45262;-65
2021/09/06 02:53:35;;;;;;;;;23.75;22.50;;;;;20.52;59.97;101219.34;4995316;28;45917;-64
2021/09/06 02:56:01;;;;;;;;;29.25;25.50;;;;;20.50;60.05;101219.47;4995369;28;45468;-65
2021/09/06 02:58:26;;;;;;;;;28.75;26.50;;;;;20.47;60.32;101218.81;4995005;28;45458;-64
2021/09/06 03:00:51;;;;;;;;;22.00;19.75;;;;;20.35;60.40;101209.88;4977386;28;45312;-64
2021/09/06 03:03:18;;;;;;;;;20.75;20.50;;;;;20.37;60.61;101218.66;4995552;28;45294;-65
2021/09/06 03:05:43;;;;;;;;;27.25;21.25;;;;;20.36;60.97;101220.44;4995590;28;45536;-66
2021/09/06 03:08:09;;;;;;;;;23.50;22.25;;;;;20.25;60.67;101213.22;4994761;28;46343;-65
2021/09/06 03:10:34;;;;;;;;;26.50;24.25;;;;;20.29;60.75;101225.41;4995106;28;45379;-65
2021/09/06 03:12:59;;;;;;;;;21.50;18.75;;;;;20.26;61.10;101219.41;4977298;28;45451;-67
2021/09/06 03:15:25;;;;;;;;;23.50;23.00;;;;;20.24;61.36;101221.31;4995492;28;45258;-68
2021/09/06 03:17:50;;;;;;;;;29.50;27.75;;;;;20.23;60.86;101219.63;4977437;28;47199;-68
2021/09/06 03:20:15;;;;;;;;;32.75;26.25;;;;;20.18;61.66;101209.28;4995252;28;45282;-65
2021/09/06 03:22:41;;;;;;;;;37.50;31.00;;;;;20.13;61.33;101214.94;4995188;28;45271;-66
2021/09/06 03:25:07;;;;;;;;;29.00;26.00;;;;;20.12;61.21;101213.22;4995125;28;45252;-65
2021/09/06 03:27:32;;;;;;;;;32.50;28.50;;;;;20.13;61.18;101214.06;4976170;28;46101;-65
2021/09/06 03:29:58;;;;;;;;;22.25;20.75;;;;;20.10;61.17;101215.16;4994583;28;45203;-64
2021/09/06 03:32:23;;;;;;;;;23.25;21.00;;;;;20.08;61.65;101211.72;4994603;28;45295;-65
2021/09/06 03:34:48;;;;;;;;;27.75;25.00;;;;;20.08;61.61;101216.19;4995383;28;45224;-64
2021/09/06 03:37:14;;;;;;;;;23.75;22.75;;;;;20.03;61.86;101213.00;4994563;28;46668;-66
2021/09/06 03:39:39;;;;;;;;;24.50;22.50;;;;;20.00;61.50;101214.94;4993140;28;45377;-67
2021/09/06 03:42:05;;;;;;;;;21.50;20.50;;;;;19.99;61.51;101218.56;4977008;28;45307;-65
2021/09/06 03:44:30;;;;;;;;;21.50;20.50;;;;;19.94;61.98;101211.84;4977162;28;45329;-64
2021/09/06 03:46:56;;;;;;;;;26.25;23.00;;;;;19.95;61.77;101217.06;4994472;28;45490;-65
2021/09/06 03:49:21;;;;;;;;;25.00;23.75;;;;;19.90;62.26;101219.22;4994517;28;45395;-64
2021/09/06 03:51:47;;;;;;;;;25.00;22.25;;;;;19.90;61.70;101215.69;4995226;28;45412;-65
2021/09/06 03:54:12;;;;;;;;;24.75;22.00;;;;;19.89;62.08;101214.78;4994798;28;45636;-65
2021/09/06 03:56:38;;;;;;;;;25.75;20.75;;;;;19.89;62.03;101206.78;4994372;28;45488;-64
2021/09/06 03:59:03;;;;;;;;;24.75;21.50;;;;;19.86;62.42;101204.34;4992734;28;45496;-65
2021/09/06 04:01:29;;;;;;;;;22.50;20.00;;;;;19.81;62.06;101204.66;4994465;28;45373;-68
2021/09/06 04:03:54;;;;;;;;;26.50;23.00;;;;;19.82;62.21;101208.19;4994512;28;45412;-67
2021/09/06 04:06:20;;;;;;;;;26.75;22.25;;;;;19.82;62.23;101208.19;4994447;28;46292;-64
2021/09/06 04:08:45;;;;;;;;;31.00;26.75;;;;;19.78;62.38;101202.22;4993805;28;45487;-65
2021/09/06 04:11:10;;;;;;;;;22.50;20.75;;;;;19.78;62.00;101206.69;4994123;28;45286;-65
2021/09/06 04:13:36;;;;;;;;;22.25;18.25;;;;;19.79;61.99;101211.06;4994430;28;45479;-65
2021/09/06 04:16:01;;;;;;;;;27.00;23.50;;;;;19.78;62.48;101209.34;4993797;28;45688;-65
2021/09/06 04:18:27;;;;;;;;;27.00;22.75;;;;;19.77;61.89;101210.31;4994093;28;45358;-65
2021/09/06 04:20:54;;;;;;;;;24.00;22.50;;;;;19.75;62.07;101214.91;4994243;28;45242;-64
2021/09/06 04:23:20;;;;;;;;;21.25;21.00;;;;;19.72;61.89;101216.00;4976960;28;45636;-64
2021/09/06 04:25:45;;;;;;;;;23.50;21.75;;;;;19.71;62.22;101208.94;4992118;28;47314;-63
2021/09/06 04:28:11;;;;;;;;;24.00;21.25;;;;;19.69;62.34;101214.38;4993778;28;45575;-64
2021/09/06 04:30:36;;;;;;;;;25.25;21.50;;;;;19.68;61.68;101206.47;4994084;28;45258;-64
2021/09/06 04:33:01;;;;;;;;;23.50;21.50;;;;;19.69;61.83;101222.38;4994764;28;45643;-66
2021/09/06 04:35:27;;;;;;;;;24.25;22.00;;;;;19.67;61.79;101212.78;4992969;28;45975;-64
2021/09/06 04:37:52;;;;;;;;;27.25;24.25;;;;;19.67;61.55;101220.78;4976465;28;45466;-64
2021/09/06 04:40:18;;;;;;;;;23.50;21.25;;;;;19.67;62.14;101223.47;4995853;28;46026;-65
2021/09/06 04:42:43;;;;;;;;;24.25;18.50;;;;;19.63;61.73;101228.13;4997394;28;45370;-66
2021/09/06 04:45:09;;;;;;;;;20.00;19.00;;;;;19.64;61.90;101235.19;4996913;28;46117;-66
2021/09/06 04:47:35;;;;;;;;;23.25;21.75;;;;;19.62;61.65;101239.78;4996990;28;45480;-64
2021/09/06 04:50:01;;;;;;;;;19.00;17.00;;;;;19.59;61.97;101236.44;4997070;28;45366;-64
2021/09/06 04:52:26;;;;;;;;;20.25;18.50;;;;;19.61;61.60;101246.06;4997419;28;45180;-66
2021/09/06 04:54:52;;;;;;;;;24.75;23.25;;;;;19.57;61.67;101244.56;4979195;28;47509;-66
2021/09/06 04:57:17;;;;;;;;;20.75;20.00;;;;;19.50;62.15;101237.94;4996923;28;45325;-66
2021/09/06 04:59:43;;;;;;;;;24.75;21.25;;;;;19.59;62.05;101247.13;4979350;28;45347;-65
2021/09/06 05:02:08;;;;;;;;;25.00;22.00;;;;;19.55;62.26;101250.00;4997141;28;45516;-64
2021/09/06 05:04:33;;;;;;;;;23.25;21.50;;;;;19.57;62.50;101249.91;4996790;28;46386;-66
2021/09/06 05:06:59;;;;;;;;;24.25;23.25;;;;;19.53;62.83;101256.41;4996957;28;45285;-67
2021/09/06 05:09:24;;;;;;;;;22.25;20.75;;;;;19.55;62.64;101251.81;4979231;28;45231;-66
2021/09/06 05:11:51;;;;;;;;;25.50;23.75;;;;;19.52;62.89;101252.03;4997650;28;45595;-66
2021/09/06 05:14:17;;;;;;;;;31.25;25.25;;;;;19.53;62.96;101256.41;4996768;28;45481;-65
2021/09/06 05:16:42;;;;;;;;;25.25;24.25;;;;;19.51;63.31;101258.31;4995174;28;45463;-67
2021/09/06 05:19:07;;;;;;;;;26.25;22.50;;;;;19.48;63.09;101253.19;4996810;28;45456;-66
2021/09/06 05:21:33;;;;;;;;;26.75;24.50;;;;;19.50;63.04;101261.94;4997084;28;45581;-66
2021/09/06 05:23:58;;;;;;;;;25.75;24.50;;;;;19.51;63.19;101261.00;4996261;28;45713;-66
2021/09/06 05:26:25;;;;;;;;;29.75;27.00;;;;;19.55;63.89;101274.00;4996851;28;45351;-66
2021/09/06 05:28:50;;;;;;;;;24.25;23.00;;;;;19.56;63.68;101273.03;4996871;28;45374;-66
2021/09/06 05:31:16;;;;;;;;;28.00;24.25;;;;;19.53;63.72;101275.09;4996798;28;45649;-65
2021/09/06 05:33:41;;;;;;;;;24.00;22.75;;;;;19.55;63.69;101279.34;4996460;28;45391;-64
2021/09/06 05:36:07;;;;;;;;;23.75;22.50;;;;;19.53;63.34;101280.41;4996594;28;45473;-65
2021/09/06 05:38:32;;;;;;;;;27.00;26.00;;;;;19.58;63.86;101294.31;4996523;28;45309;-64
2021/09/06 05:40:58;;;;;;;;;25.50;23.75;;;;;19.59;63.51;101293.34;4997001;28;45277;-64
2021/09/06 05:43:24;;;;;;;;;32.75;29.75;;;;;19.61;63.48;101299.44;4996684;28;45325;-68
2021/09/06 05:45:49;;;;;;;;;34.00;29.50;;;;;19.59;63.49;101292.47;4994861;28;45333;-66
2021/09/06 05:48:14;;;;;;;;;29.75;23.50;;;;;19.66;63.18;101301.81;4996146;28;45226;-65
2021/09/06 05:50:40;;;;;;;;;32.75;26.50;;;;;19.68;63.46;101305.22;4996287;28;45449;-64
2021/09/06 05:53:06;;;;;;;;;26.00;25.50;;;;;19.70;63.38;101309.50;4996250;28;46541;-65
2021/09/06 05:55:32;;;;;;;;;28.75;24.75;;;;;19.73;62.90;101307.56;4995869;28;45699;-66
2021/09/06 05:57:58;;;;;;;;;28.00;23.25;;;;;19.78;63.11;101318.78;4996036;28;45440;-67
2021/09/06 06:00:23;;;;;;;;;30.25;25.50;;;;;19.81;62.76;101318.59;4996396;28;45519;-65
2021/09/06 06:02:48;;;;;;;;;28.00;25.75;;;;;19.84;62.46;101321.03;4995920;28;45400;-65
2021/09/06 06:05:13;;;;;;;;;27.25;24.25;;;;;19.86;62.17;101316.47;4996035;28;45555;-65
2021/09/06 06:07:39;;;;;;;;;24.75;23.75;;;;;19.91;62.16;101322.38;4995939;28;45339;-66
2021/09/06 06:10:05;;;;;;;;;32.75;29.25;;;;;19.92;62.16;101318.75;4995987;28;45393;-67
2021/09/06 06:12:33;;;;;;;;;28.00;24.50;;;;;19.94;61.77;101311.47;4995908;28;45361;-67
2021/09/06 06:14:58;;;;;;;;;25.50;24.50;;;;;20.03;61.93;101322.50;4978173;28;45290;-68
2021/09/06 06:17:25;;;;;;;;;29.50;25.75;;;;;20.05;62.00;101324.09;4996233;28;45264;-69
2021/09/06 06:19:54;;;;;;;;;26.75;23.75;;;;;20.13;61.78;101332.44;4995107;28;45429;-63
2021/09/06 06:22:19;;;;;;;;;25.50;23.50;;;;;20.17;61.08;101338.44;4995730;28;46036;-69
2021/09/06 06:24:45;;;;;;;;;29.00;27.00;;;;;20.21;61.49;101331.06;4995418;28;45445;-65
2021/09/06 06:27:10;;;;;;;;;25.50;23.50;;;;;20.25;60.90;101329.88;4995581;28;45317;-65
2021/09/06 06:29:36;;;;;;;;;31.50;25.25;;;;;20.29;61.07;101334.91;4995974;28;45621;-70
2021/09/06 06:32:02;;;;;;;;;28.25;24.75;;;;;20.21;60.89;101320.38;4995422;28;45482;-63
2021/09/06 06:34:27;;;;;;;;;27.75;22.25;;;;;20.33;60.61;101330.19;4977971;28;45351;-63
2021/09/06 06:36:53;;;;;;;;;39.25;30.75;;;;;20.42;60.73;101336.72;4995378;28;45241;-64
2021/09/06 06:39:18;;;;;;;;;31.00;28.25;;;;;20.45;60.43;101344.53;4995794;28;45569;-65
2021/09/06 06:41:46;;;;;;;;;28.00;26.50;;;;;20.49;60.28;101343.34;4995902;28;45759;-65
2021/09/06 06:44:12;;;;;;;;;25.50;24.75;;;;;20.53;60.23;101341.31;4977632;28;45340;-63
2021/09/06 06:46:38;;;;;;;;;30.25;26.50;;;;;20.59;60.44;101351.56;4995587;28;45528;-68
2021/09/06 06:49:03;;;;;;;;;32.50;29.75;;;;;20.56;60.08;101333.94;4977763;28;45525;-65
2021/09/06 06:51:29;;;;;;;;;36.75;30.75;;;;;20.64;60.45;101343.22;4995511;28;45522;-71
2021/09/06 06:53:54;;;;;;;;;29.50;24.75;;;;;20.61;60.08;101327.41;4995228;28;45321;-67
2021/09/06 06:56:20;;;;;;;;;34.50;28.50;;;;;20.67;59.71;101337.66;4995400;28;45608;-62
2021/09/06 06:58:45;;;;;;;;;33.00;27.75;;;;;20.75;59.78;101354.00;4995321;28;45550;-64
2021/09/06 07:01:11;;;;;;;;;28.25;25.75;;;;;20.82;59.75;101351.81;4994929;28;45223;-69
2021/09/06 07:03:36;;;;;;;;;36.50;31.25;;;;;20.86;59.36;101354.13;4976556;28;45356;-69
2021/09/06 07:06:02;;;;;;;;;28.75;27.25;;;;;20.95;59.33;101362.47;4977578;28;45187;-74
2021/09/06 07:08:27;;;;;;;;;33.50;28.00;;;;;20.95;59.34;101349.09;4996000;28;45663;-72
2021/09/06 07:10:52;;;;;;;;;37.75;29.25;;;;;21.07;59.03;101358.06;4995039;28;45305;-68
2021/09/06 07:13:18;;;;;;;;;32.00;29.00;;;;;21.14;59.05;101360.16;4977534;28;45266;-65
2021/09/06 07:15:43;;;;;;;;;28.00;25.25;;;;;21.20;58.45;101368.69;4995032;28;45314;-66
2021/09/06 07:18:09;;;;;;;;;33.00;30.25;;;;;21.23;58.39;101361.31;4977438;28;45369;-66
2021/09/06 07:20:35;;;;;;;;;40.75;30.75;;;;;21.22;57.83;101350.75;4993208;28;47599;-67
2021/09/06 07:23:02;;;;;;;;;36.75;32.25;;;;;21.36;58.26;101360.41;4995212;28;45813;-66
2021/09/06 07:25:28;;;;;;;;;31.25;29.25;;;;;21.44;58.09;101372.28;4995116;28;45468;-67
2021/09/06 07:27:53;;;;;;;;;37.25;31.75;;;;;21.53;58.08;101367.19;4993733;28;45587;-65
2021/09/06 07:30:22;;;;;;;;;31.50;29.75;;;;;21.60;57.81;101366.63;4977618;28;47618;-67
2021/09/06 07:32:48;;;;;;;;;34.00;31.25;;;;;21.73;57.77;101376.44;4995075;28;45726;-67
2021/09/06 07:35:14;;;;;;;;;35.25;32.25;;;;;21.79;57.47;101372.44;5011154;28;45447;-70
2021/09/06 07:37:40;;;;;;;;;32.00;28.75;;;;;21.93;57.43;101377.63;5014722;28;45217;-70
2021/09/06 07:40:10;;;;;;;;;31.25;28.75;;;;;22.02;57.13;101378.75;5014504;28;45560;-66
2021/09/06 07:42:36;;;;;;;;;31.75;27.00;;;;;21.99;56.72;101361.06;5013266;28;45523;-66
2021/09/06 07:45:04;;;;;;;;;36.50;30.50;;;;;22.14;56.48;101374.25;5014793;28;45240;-70
2021/09/06 07:47:30;;;;;;;;;34.00;27.75;;;;;22.23;56.58;101384.25;5014727;28;45296;-70
2021/09/06 07:49:57;;;;;;;;;39.50;31.25;;;;;22.35;56.53;101382.47;5014244;28;46281;-66
2021/09/06 07:52:23;;;;;;;;;39.25;30.75;;;;;22.44;56.16;101386.28;5014446;28;45463;-70
2021/09/06 07:54:48;;;;;;;;;26.25;25.25;;;;;22.56;55.83;101385.34;5014383;28;45253;-70
2021/09/06 07:57:14;;;;;;;;;37.50;30.50;;;;;22.68;55.54;101383.50;4996543;28;45349;-67
2021/09/06 07:59:39;;;;;;;;;32.75;29.75;;;;;22.81;55.44;101386.09;5014170;28;45474;-69
2021/09/06 08:02:05;;;;;;;;;30.00;27.75;;;;;22.92;54.74;101387.91;5014137;28;45393;-66
2021/09/06 08:04:30;;;;;;;;;30.00;28.25;;;;;23.04;55.03;101388.75;5014552;28;45412;-68
2021/09/06 08:06:56;;;;;;;;;34.50;31.50;;;;;23.14;54.81;101388.88;5013080;28;45354;-66
2021/09/06 08:09:21;;;;;;;;;48.00;39.00;;;;;23.30;53.26;101404.59;5014111;28;45265;-65
2021/09/06 08:11:48;;;;;;;;;30.00;26.25;;;;;23.41;53.11;101401.91;5014028;28;45179;-67
2021/09/06 08:14:14;;;;;;;;;31.75;25.75;;;;;23.50;53.13;101400.28;5015691;28;45298;-65
2021/09/06 08:16:40;;;;;;;;;38.75;32.75;;;;;23.61;53.02;101404.78;5017812;28;45568;-64
2021/09/06 08:19:05;;;;;;;;;30.25;29.25;;;;;23.69;52.17;101410.34;5017531;28;46271;-67
2021/09/06 08:21:31;;;;;;;;;25.75;21.75;;;;;23.80;51.42;101406.75;5018038;28;45250;-65
2021/09/06 08:23:58;;;;;;;;;44.25;36.00;;;;;23.90;51.55;101413.09;5017682;28;45350;-72
2021/09/06 08:26:25;;;;;;;;;27.25;26.50;;;;;23.98;51.16;101395.47;5016159;28;45507;-69
2021/09/06 08:28:50;;;;;;;;;33.25;31.75;;;;;24.11;51.20;101406.91;5016835;28;46581;-66
2021/09/06 08:31:16;;;;;;;;;26.75;24.50;;;;;24.21;51.05;101409.66;5015629;28;45460;-66
2021/09/06 08:33:41;;;;;;;;;43.00;32.00;;;;;24.33;50.66;101410.44;5017220;28;45371;-66
2021/09/06 08:36:09;;;;;;;;;23.00;23.00;;;;;24.41;50.66;101397.19;5017464;28;45318;-68
2021/09/06 08:38:35;;;;;;;;;31.00;27.25;;;;;24.55;50.18;101405.91;5015854;28;46741;-65
2021/09/06 08:41:02;;;;;;;;;30.50;28.00;;;;;24.59;50.05;101402.81;5017701;28;45258;-65
2021/09/06 08:43:29;;;;;;;;;44.75;34.75;;;;;24.73;50.27;101415.06;5017372;28;45513;-68
2021/09/06 08:45:54;;;;;;;;;29.75;26.25;;;;;24.83;49.37;101403.50;5017286;28;45349;-67
2021/09/06 08:48:20;;;;;;;;;55.50;45.25;;;;;24.92;49.33;101400.03;5016744;28;45616;-66
2021/09/06 08:50:46;;;;;;;;;47.50;39.25;;;;;25.11;48.53;101403.78;5016940;28;45451;-66
2021/09/06 08:53:11;;;;;;;;;25.50;22.75;;;;;25.18;47.63;101403.06;4998827;28;45254;-67
2021/09/06 08:55:41;;;;;;;;;19.00;16.75;;;;;25.34;47.07;101407.06;5016004;28;45533;-72
2021/09/06 08:58:07;;;;;;;;;19.75;19.25;;;;;25.41;46.57;101402.81;5017112;28;46594;-66
2021/09/06 09:00:33;;;;;;;;;18.00;17.75;;;;;25.52;45.82;101405.44;5015491;28;45384;-68
2021/09/06 09:03:00;;;;;;;;;25.25;23.00;;;;;25.59;46.42;101410.28;5016756;28;45331;-65
2021/09/06 09:05:26;;;;;;;;;22.50;21.50;;;;;25.68;46.31;101409.44;5016875;28;45362;-70
2021/09/06 09:07:58;;;;;;;;;20.00;17.50;;;;;25.73;45.10;101409.84;5016196;28;46139;-66
2021/09/06 09:10:30;;;;;;;;;20.50;20.50;;;;;25.88;44.65;101409.44;5014861;28;45332;-66
2021/09/06 09:13:22;;;;;;;;;20.00;18.75;;;;;25.99;44.51;101411.97;5016517;28;45324;-66
2021/09/06 09:15:56;;;;;;;;;16.00;14.00;;;;;26.05;44.17;101410.56;5012505;28;45210;-69
2021/09/06 09:18:25;;;;;;;;;13.50;13.50;;;;;26.15;43.91;101407.88;5016554;28;45640;-66
2021/09/06 09:20:58;;;;;;;;;17.75;17.75;;;;;26.24;43.80;101402.47;5016508;28;45345;-66
2021/09/06 09:23:34;;;;;;;;;24.50;22.25;;;;;26.31;43.52;101391.09;5017014;28;45401;-66
2021/09/06 09:26:01;;;;;;;;;21.75;17.00;;;;;26.42;43.35;101401.72;4998711;28;45191;-68
2021/09/06 09:28:27;;;;;;;;;19.00;17.25;;;;;26.48;41.59;101400.25;5016930;28;46582;-66
2021/09/06 09:31:21;;;;;;;;;19.25;16.00;;;;;26.54;42.54;101408.63;5016466;28;45454;-69
2021/09/06 09:33:49;;;;;;;;;15.75;15.50;;;;;26.62;41.81;101402.53;5014849;28;45421;-68
2021/09/06 09:36:30;;;;;;;;;16.50;14.75;;;;;26.71;41.54;101405.31;5016612;28;45282;-71
2021/09/06 09:39:13;;;;;;;;;18.25;15.25;;;;;26.76;41.07;101409.25;5015725;28;46607;-71
2021/09/06 09:41:40;;;;;;;;;16.75;16.25;;;;;26.77;42.01;101412.81;5015973;28;45377;-68
2021/09/06 09:44:06;;;;;;;;;14.25;14.25;;;;;26.92;42.11;101419.47;5016380;28;45332;-68
2021/09/06 09:46:31;;;;;;;;;19.75;15.50;;;;;27.01;41.52;101412.31;5015935;28;45313;-69
2021/09/06 09:49:10;;;;;;;;;17.25;16.75;;;;;27.05;41.13;101407.47;4997768;28;47090;-66
2021/09/06 09:51:36;;;;;;;;;18.75;18.75;;;;;27.12;40.85;101414.84;5016381;28;45354;-67
2021/09/06 09:54:03;;;;;;;;;16.75;14.75;;;;;27.15;40.98;101408.25;5016021;28;45201;-66
2021/09/06 09:56:30;;;;;;;;;20.00;17.75;;;;;27.26;41.22;101409.91;5015974;28;45609;-66
2021/09/06 09:59:00;;;;;;;;;20.25;16.75;;;;;27.33;40.30;101402.03;5015406;28;45526;-67
2021/09/06 10:01:28;;;;;;;;;18.25;16.00;;;;;27.36;40.21;101396.34;5015209;28;45337;-69
2021/09/06 10:03:57;;;;;;;;;17.00;15.25;;;;;27.50;40.26;101406.63;5014525;28;45197;-74
2021/09/06 10:06:24;;;;;;;;;19.00;18.25;;;;;27.61;40.27;101400.16;5015776;28;45404;-68
2021/09/06 10:08:50;;;;;;;;;23.25;23.00;;;;;27.75;40.75;101398.78;5015300;28;46302;-69
2021/09/06 10:11:15;;;;;;;;;51.75;41.75;;;;;27.87;39.22;101414.78;5014116;28;45438;-67
2021/09/06 10:13:42;;;;;;;;;22.50;20.25;;;;;27.84;39.24;101408.66;5015743;28;45391;-65
2021/09/06 10:16:07;;;;;;;;;23.25;20.25;;;;;27.86;39.13;101408.50;5016162;28;45208;-70
2021/09/06 10:18:39;;;;;;;;;18.50;17.75;;;;;27.90;39.67;101401.78;5015074;28;45337;-66
2021/09/06 10:21:16;;;;;;;;;13.25;13.25;;;;;27.95;39.60;101404.03;4997708;28;45392;-65
2021/09/06 10:23:51;;;;;;;;;18.25;15.25;;;;;28.01;39.27;101406.09;5015271;28;45305;-67
2021/09/06 10:26:17;;;;;;;;;51.50;43.25;;;;;28.00;39.66;101402.53;5015384;28;45162;-66
2021/09/06 10:28:42;;;;;;;;;20.75;17.50;;;;;28.05;38.62;101395.81;5013738;28;48486;-64
2021/09/06 10:31:21;;;;;;;;;20.00;18.75;;;;;28.05;39.06;101402.06;5016084;28;45351;-69
2021/09/06 10:33:57;;;;;;;;;15.50;15.00;;;;;28.14;39.40;101403.84;5015420;28;45369;-66
2021/09/06 10:36:22;;;;;;;;;15.75;14.25;;;;;28.25;38.94;101394.66;5015597;28;45449;-67
2021/09/06 10:38:59;;;;;;;;;19.25;16.00;;;;;28.36;38.59;101398.09;5013782;28;45422;-66
2021/09/06 10:41:25;;;;;;;;;15.75;14.00;;;;;28.42;38.45;101400.16;5015432;28;45455;-66
2021/09/06 10:44:08;;;;;;;;;20.00;14.25;;;;;28.47;38.12;101394.25;5014941;28;45370;-73
2021/09/06 10:46:33;;;;;;;;;13.75;13.75;;;;;28.52;38.30;101390.06;5015552;28;45571;-68
2021/09/06 10:49:05;;;;;;;;;14.00;11.25;;;;;28.62;37.52;101389.94;5014657;28;45553;-73
2021/09/06 10:51:33;;;;;;;;;15.00;15.00;;;;;28.67;37.57;101387.63;5013416;28;45975;-70
2021/09/06 10:54:01;;;;;;;;;20.00;15.25;;;;;28.68;37.73;101389.31;5013206;28;45504;-73
2021/09/06 10:56:31;;;;;;;;;14.75;14.75;;;;;28.76;38.06;101387.66;5013401;28;45597;-68
2021/09/06 10:58:58;;;;;;;;;15.00;14.00;;;;;28.84;37.79;101375.03;5012850;28;48165;-73
2021/09/06 11:01:24;;;;;;;;;19.00;18.50;;;;;28.99;37.75;101388.78;5014271;28;45356;-69
2021/09/06 11:03:52;;;;;;;;;16.50;15.50;;;;;29.10;38.01;101382.22;5012839;28;45511;-67
2021/09/06 11:06:24;;;;;;;;;17.25;17.00;;;;;29.19;37.04;101388.50;4997010;28;45463;-69